الصفحة الرئيسية
METAR-TAF:

METAR-TAF

مطار :

مطار غران كناريا

كناريا الكبرى, إسبانيا

دائرة عرض: 27-56N, خط طول: 015-23W, ارتفاع: 23 متر

مراقبة الطقس الحالي

تاريخ ووقت الإصدار 18 دقيقة قبل الساعة 11:30UTC
ريح 19 عقدة من الشمال/الشمال الشرقي
درجة الحرارة 22°درجة مئوية
الرطوبة 57%
ضغط 1021 hPa
الرؤية 10 كم أو أكثر
غيوم قليلة على ارتفاع 5000 قدم

METAR: GCLP 271130Z 03019KT 9999 FEW050 22/13 Q1021 NOSIG

زمن: 12:48 (11:48 UTC)

توقعات

تاريخ ووقت الإصدار 3ساعات و 48 دقيقة قبل الساعة 08:00UTC
التوقعات صالحة من27 الساعة 09 UTC إلى 28 الساعة 09 UTC
ريح 18 عقدة من الشمال
الرؤية 10 كم أو أكثر
غيوم قليلة على ارتفاع 3000 قدم

TAF: GCLP 270800Z 2709/2809 36018KT 9999 FEW030 TX24/2714Z TN17/2805Z

أرصاد الطقس والتوقعات من أكثر من 4000 مطار (تقارير الطقس للمطار METAR والتنبؤ بالطقس بالمطارTAF).

المحطات المتاحة هي النقط الصفراء والحمراء على الخريطة.

حرك المؤشر فوق النقطة لمعرفة اسم المحطة.

ثم انقر لمعرفة أرصاد وتوقعات الطقس.

لتغيير الخارطة: اضغط على الأزرار الخضراء مع رمز الصليب الأسود للتكبير. على الزر الأخضر مع شرطة للتصغير، أو على الأسهم الخضراء للخرائط المجاورة.


METAR-TAF: